createdAt,value
2022-12-31T00:00:27.202Z,100.00
2022-12-31T00:05:50.578Z,100.00
2022-12-31T00:10:53.691Z,100.00
2022-12-31T00:16:12.195Z,100.00
2022-12-31T00:21:17.116Z,100.00
2022-12-31T00:26:24.910Z,100.00
2022-12-31T00:31:30.622Z,100.00
2022-12-31T00:36:39.255Z,100.00
2022-12-31T00:41:44.262Z,100.00
2022-12-31T00:46:48.499Z,100.00
2022-12-31T00:51:51.600Z,100.00
2022-12-31T00:56:54.678Z,100.00
2022-12-31T01:01:57.829Z,100.00
2022-12-31T01:07:00.989Z,100.00
2022-12-31T01:12:04.398Z,100.00
2022-12-31T01:17:08.171Z,100.00
2022-12-31T01:22:11.297Z,100.00
2022-12-31T01:27:14.616Z,100.00
2022-12-31T01:32:18.244Z,100.00
2022-12-31T01:37:21.379Z,100.00
2022-12-31T01:42:24.464Z,100.00
2022-12-31T01:47:42.605Z,100.00
2022-12-31T01:52:50.080Z,100.00
2022-12-31T01:57:58.556Z,100.00
2022-12-31T02:03:02.686Z,100.00
2022-12-31T02:08:06.928Z,100.00
2022-12-31T02:13:10.329Z,100.00
2022-12-31T02:18:46.038Z,100.00
2022-12-31T02:24:10.156Z,100.00
2022-12-31T02:29:48.725Z,100.00
2022-12-31T02:34:59.082Z,100.00
2022-12-31T02:40:04.108Z,100.00
2022-12-31T02:45:08.245Z,100.00
2022-12-31T02:50:31.878Z,100.00
2022-12-31T02:55:58.081Z,100.00
2022-12-31T03:01:19.989Z,100.00
2022-12-31T03:06:23.292Z,100.00
2022-12-31T03:11:45.037Z,100.00
2022-12-31T03:16:49.233Z,100.00
2022-12-31T03:22:10.788Z,100.00
2022-12-31T03:27:13.925Z,100.00
2022-12-31T03:32:17.059Z,100.00
2022-12-31T03:37:20.255Z,100.00
2022-12-31T03:42:23.426Z,100.00
2022-12-31T03:47:26.645Z,100.00
2022-12-31T03:52:29.771Z,100.00
2022-12-31T03:57:33.663Z,100.00
2022-12-31T04:02:37.288Z,100.00
2022-12-31T04:07:41.766Z,100.00
2022-12-31T04:12:45.412Z,100.00
2022-12-31T04:17:49.241Z,100.00
2022-12-31T04:22:52.399Z,100.00
2022-12-31T04:27:55.487Z,100.00
2022-12-31T04:32:58.602Z,100.00
2022-12-31T04:38:01.731Z,100.00
2022-12-31T04:43:04.795Z,100.00
2022-12-31T04:48:07.863Z,100.00
2022-12-31T04:53:10.942Z,100.00
2022-12-31T04:58:14.046Z,100.00
2022-12-31T05:03:18.562Z,100.00
2022-12-31T05:08:21.967Z,100.00
2022-12-31T05:13:29.499Z,100.00
2022-12-31T05:18:37.023Z,100.00
2022-12-31T05:23:40.196Z,100.00
2022-12-31T05:28:43.359Z,100.00
2022-12-31T05:33:46.513Z,100.00
2022-12-31T05:38:49.602Z,100.00
2022-12-31T05:43:52.671Z,100.00
2022-12-31T05:48:55.780Z,100.00
2022-12-31T05:53:58.986Z,100.00
2022-12-31T05:59:02.129Z,100.00
2022-12-31T06:04:06.185Z,100.00
2022-12-31T06:09:09.505Z,100.00
2022-12-31T06:14:13.014Z,100.00
2022-12-31T06:19:16.186Z,100.00
2022-12-31T06:24:19.379Z,100.00
2022-12-31T06:29:22.474Z,100.00
2022-12-31T06:34:25.648Z,100.00
2022-12-31T06:39:28.912Z,100.00
2022-12-31T06:44:32.039Z,100.00
2022-12-31T06:49:35.157Z,100.00
2022-12-31T06:54:38.747Z,100.00
2022-12-31T06:59:42.269Z,100.00
2022-12-31T07:05:10.449Z,100.00
2022-12-31T07:10:30.091Z,100.00
2022-12-31T07:15:59.110Z,100.00
2022-12-31T07:21:02.847Z,100.00
2022-12-31T07:26:35.735Z,100.00
2022-12-31T07:32:08.065Z,100.00
2022-12-31T07:37:36.437Z,100.00
2022-12-31T07:42:57.137Z,100.00
2022-12-31T07:48:02.838Z,100.00
2022-12-31T07:53:06.492Z,100.00
2022-12-31T07:58:22.416Z,100.00
2022-12-31T08:03:40.796Z,100.00
2022-12-31T08:08:49.873Z,100.00
2022-12-31T08:13:56.410Z,100.00
2022-12-31T08:18:59.785Z,100.00
2022-12-31T08:24:21.962Z,100.00
2022-12-31T08:29:53.189Z,100.00
2022-12-31T08:35:15.503Z,100.00
2022-12-31T08:40:50.436Z,100.00
2022-12-31T08:45:58.073Z,100.00
2022-12-31T08:51:01.492Z,100.00
2022-12-31T08:56:15.483Z,100.00
2022-12-31T09:01:24.791Z,100.00
2022-12-31T09:06:38.234Z,100.00
2022-12-31T09:12:06.266Z,99.94
2022-12-31T09:17:33.896Z,98.98
2022-12-31T09:22:38.728Z,98.60
2022-12-31T09:28:11.666Z,98.15
2022-12-31T09:33:36.726Z,97.88
2022-12-31T09:38:39.785Z,97.46
2022-12-31T09:43:48.843Z,97.16
2022-12-31T09:49:01.231Z,97.28
2022-12-31T09:54:04.323Z,97.26
2022-12-31T09:59:17.980Z,97.32
2022-12-31T10:04:48.303Z,97.25
2022-12-31T10:10:12.996Z,97.52
2022-12-31T10:15:49.796Z,96.84
2022-12-31T10:21:11.723Z,96.39
2022-12-31T10:26:33.652Z,96.37
2022-12-31T10:32:31.682Z,96.11
2022-12-31T10:37:56.673Z,95.94
2022-12-31T10:43:34.178Z,95.68
2022-12-31T10:48:54.979Z,95.37
2022-12-31T10:54:07.332Z,94.90
2022-12-31T11:05:49.090Z,93.91
2022-12-31T11:11:23.823Z,93.77
2022-12-31T11:17:03.580Z,93.23
2022-12-31T11:22:33.723Z,93.01
2022-12-31T11:27:49.620Z,93.29
2022-12-31T11:33:20.585Z,93.10
2022-12-31T11:38:23.687Z,93.41
2022-12-31T11:43:54.707Z,93.57
2022-12-31T11:49:00.607Z,93.03
2022-12-31T11:54:26.020Z,93.30
2022-12-31T11:59:38.411Z,93.08
2022-12-31T12:04:41.824Z,93.29
2022-12-31T12:09:49.221Z,92.76
2022-12-31T12:14:55.035Z,92.79
2022-12-31T12:20:15.286Z,92.62
2022-12-31T12:25:22.504Z,92.41
2022-12-31T12:30:28.230Z,93.04
2022-12-31T12:35:34.175Z,93.94
2022-12-31T12:40:59.041Z,94.45
2022-12-31T12:46:42.593Z,95.00
2022-12-31T12:52:16.987Z,96.17
2022-12-31T12:57:47.666Z,97.13
2022-12-31T13:03:02.178Z,97.46
2022-12-31T13:08:15.127Z,97.95
2022-12-31T13:13:47.692Z,98.49
2022-12-31T13:19:04.734Z,98.77
2022-12-31T13:24:32.837Z,98.89
2022-12-31T13:29:49.120Z,98.78
2022-12-31T13:35:10.893Z,98.56
2022-12-31T13:41:23.993Z,98.12
2022-12-31T13:47:04.807Z,98.00
2022-12-31T13:52:35.330Z,97.60
2022-12-31T13:58:11.639Z,97.02
2022-12-31T14:03:31.654Z,96.95
2022-12-31T14:09:02.431Z,96.54
2022-12-31T14:14:42.419Z,96.18
2022-12-31T14:20:06.369Z,95.76
2022-12-31T14:26:01.757Z,95.67
2022-12-31T14:31:20.159Z,95.07
2022-12-31T14:37:04.557Z,94.49
2022-12-31T14:42:34.938Z,94.22
2022-12-31T14:47:55.734Z,94.21
2022-12-31T14:53:33.671Z,93.97
2022-12-31T14:58:39.652Z,93.72
2022-12-31T15:03:45.994Z,93.58
2022-12-31T15:09:08.800Z,93.31
2022-12-31T15:14:36.899Z,93.11
2022-12-31T15:19:50.043Z,92.75
2022-12-31T15:32:26.142Z,92.79
2022-12-31T15:38:18.817Z,92.87
2022-12-31T15:43:25.228Z,92.87
2022-12-31T15:48:52.094Z,93.00
2022-12-31T15:53:58.320Z,92.62
2022-12-31T15:59:06.689Z,92.36
2022-12-31T16:04:42.826Z,92.22
2022-12-31T16:09:59.172Z,91.97
2022-12-31T16:15:03.355Z,91.82
2022-12-31T16:20:30.426Z,91.66
2022-12-31T16:25:34.119Z,91.52
2022-12-31T16:30:37.561Z,91.35
2022-12-31T16:35:41.096Z,90.96
2022-12-31T16:41:04.204Z,90.48
2022-12-31T16:46:10.342Z,90.20
2022-12-31T16:51:21.346Z,90.22
2022-12-31T16:56:36.699Z,90.62
2022-12-31T17:01:40.042Z,90.63
2022-12-31T17:06:44.248Z,90.62
2022-12-31T17:11:56.476Z,90.70
2022-12-31T17:17:08.814Z,90.59
2022-12-31T17:22:34.236Z,90.50
2022-12-31T17:27:39.838Z,90.13
2022-12-31T17:32:45.534Z,90.34
2022-12-31T17:37:48.713Z,90.01
2022-12-31T17:42:52.063Z,90.22
2022-12-31T17:47:59.936Z,90.26
2022-12-31T17:53:11.225Z,90.62
2022-12-31T17:58:23.556Z,90.87
2022-12-31T18:03:30.972Z,91.04
2022-12-31T18:08:34.183Z,91.26
2022-12-31T18:13:37.399Z,91.43
2022-12-31T18:18:42.147Z,91.66
2022-12-31T18:23:47.992Z,91.60
2022-12-31T18:28:51.598Z,91.60
2022-12-31T18:33:57.112Z,91.56
2022-12-31T18:39:00.393Z,91.34
2022-12-31T18:44:03.743Z,91.33
2022-12-31T18:49:06.872Z,90.97
2022-12-31T18:54:12.330Z,90.65
2022-12-31T18:59:15.556Z,90.47
2022-12-31T19:04:27.092Z,90.07
2022-12-31T19:09:45.199Z,89.89
2022-12-31T19:14:49.470Z,89.78
2022-12-31T19:19:52.561Z,89.57
2022-12-31T19:24:55.692Z,89.25
2022-12-31T19:30:00.759Z,89.25
2022-12-31T19:35:04.290Z,89.17
2022-12-31T19:40:13.061Z,88.82
2022-12-31T19:45:21.595Z,88.89
2022-12-31T19:50:27.479Z,88.78
2022-12-31T19:55:33.066Z,88.87
2022-12-31T20:00:36.304Z,88.95
2022-12-31T20:05:39.529Z,88.94
2022-12-31T20:10:43.875Z,88.63
2022-12-31T20:15:48.006Z,88.57
2022-12-31T20:20:55.804Z,88.49
2022-12-31T20:26:00.488Z,88.40
2022-12-31T20:31:12.440Z,88.56
2022-12-31T20:36:17.759Z,88.47
2022-12-31T20:41:23.320Z,88.53
2022-12-31T20:46:29.890Z,88.81
2022-12-31T20:51:35.093Z,88.78
2022-12-31T20:56:41.319Z,88.68
2022-12-31T21:02:19.284Z,88.57
2022-12-31T21:07:07.962Z,88.52
2022-12-31T21:12:30.449Z,88.56
2022-12-31T21:17:33.617Z,88.59
2022-12-31T21:22:36.815Z,88.42
2022-12-31T21:27:40.037Z,88.28
2022-12-31T21:32:43.193Z,88.04
2022-12-31T21:37:58.424Z,88.24
2022-12-31T21:43:03.931Z,88.26
2022-12-31T21:48:20.546Z,88.51
2022-12-31T21:53:29.207Z,88.43
2022-12-31T21:58:36.758Z,88.29
2022-12-31T22:03:39.988Z,88.30
2022-12-31T22:08:44.864Z,88.25
2022-12-31T22:13:49.918Z,88.47
2022-12-31T22:18:55.762Z,88.31
2022-12-31T22:23:59.108Z,88.23
2022-12-31T22:29:02.271Z,88.39
2022-12-31T22:34:05.469Z,88.37
2022-12-31T22:39:44.732Z,88.08
2022-12-31T22:44:38.597Z,87.69
2022-12-31T22:49:41.727Z,87.73
2022-12-31T22:54:44.809Z,87.51
2022-12-31T22:59:47.978Z,87.48
2022-12-31T23:04:51.131Z,87.56
2022-12-31T23:10:12.884Z,87.57
2022-12-31T23:15:34.704Z,87.55
2022-12-31T23:20:57.173Z,87.39
2022-12-31T23:26:02.167Z,87.59
2022-12-31T23:31:06.840Z,87.52
2022-12-31T23:36:10.222Z,87.31
2022-12-31T23:41:15.754Z,87.23
2022-12-31T23:46:19.000Z,87.07
2022-12-31T23:51:22.384Z,87.11
2022-12-31T23:56:25.485Z,86.95
